createdAt,value
2022-10-26T00:01:54.752Z,100684.11
2022-10-26T00:04:23.583Z,100682.58
2022-10-26T00:06:52.251Z,100683.66
2022-10-26T00:09:20.929Z,100682.33
2022-10-26T00:11:49.653Z,100681.55
2022-10-26T00:14:18.532Z,100685.48
2022-10-26T00:16:47.531Z,100686.27
2022-10-26T00:19:16.262Z,100684.94
2022-10-26T00:21:45.016Z,100687.42
2022-10-26T00:24:14.696Z,100690.79
2022-10-26T00:26:43.453Z,100694.86
2022-10-26T00:29:13.013Z,100695.63
2022-10-26T00:31:41.787Z,100693.08
2022-10-26T00:34:12.248Z,100701.92
2022-10-26T00:36:41.123Z,100698.21
2022-10-26T00:39:13.637Z,100700.80
2022-10-26T00:41:42.410Z,100700.27
2022-10-26T00:44:48.310Z,100696.48
2022-10-26T00:47:41.053Z,100698.13
2022-10-26T00:50:19.172Z,100695.39
2022-10-26T00:52:51.020Z,100700.56
2022-10-26T00:55:27.213Z,100698.60
2022-10-26T00:57:56.022Z,100696.99
2022-10-26T01:00:24.748Z,100696.41
2022-10-26T01:02:57.483Z,100700.70
2022-10-26T01:05:27.341Z,100697.31
2022-10-26T01:07:56.695Z,100698.90
2022-10-26T01:10:26.376Z,100701.20
2022-10-26T01:12:57.717Z,100703.85
2022-10-26T01:15:52.112Z,100705.63
2022-10-26T01:18:32.221Z,100708.81
2022-10-26T01:21:31.133Z,100709.77
2022-10-26T01:24:23.945Z,100706.80
2022-10-26T01:27:24.140Z,100705.18
2022-10-26T01:30:28.521Z,100705.02
2022-10-26T01:33:37.338Z,100703.27
2022-10-26T01:36:28.157Z,100700.92
2022-10-26T01:39:36.404Z,100699.85
2022-10-26T01:42:09.186Z,100696.02
2022-10-26T01:44:49.712Z,100693.52
2022-10-26T01:47:20.896Z,100697.50
2022-10-26T01:49:59.163Z,100698.89
2022-10-26T01:52:28.708Z,100703.95
2022-10-26T01:55:07.230Z,100703.45
2022-10-26T01:57:38.470Z,100701.05
2022-10-26T02:00:12.802Z,100700.41
2022-10-26T02:03:04.623Z,100701.01
2022-10-26T02:06:06.004Z,100699.89
2022-10-26T02:08:53.177Z,100697.92
2022-10-26T02:11:41.867Z,100700.44
2022-10-26T02:14:37.633Z,100700.13
2022-10-26T02:17:16.579Z,100701.75
2022-10-26T02:19:55.033Z,100697.77
2022-10-26T02:22:45.439Z,100699.08
2022-10-26T02:25:30.929Z,100702.08
2022-10-26T02:28:08.013Z,100704.46
2022-10-26T02:30:39.034Z,100706.11
2022-10-26T02:33:12.310Z,100709.11
2022-10-26T02:35:47.460Z,100711.08
2022-10-26T02:38:20.362Z,100710.95
2022-10-26T02:40:51.920Z,100714.48
2022-10-26T02:43:23.670Z,100710.96
2022-10-26T02:45:59.823Z,100713.37
2022-10-26T02:48:28.681Z,100715.61
2022-10-26T02:51:12.837Z,100720.31
2022-10-26T02:53:54.116Z,100722.09
2022-10-26T02:56:31.271Z,100722.37
2022-10-26T02:59:06.049Z,100718.82
2022-10-26T03:01:35.857Z,100720.98
2022-10-26T03:04:05.079Z,100716.91
2022-10-26T03:06:33.875Z,100716.23
2022-10-26T03:09:02.829Z,100715.25
2022-10-26T03:11:31.541Z,100713.64
2022-10-26T03:14:00.293Z,100712.68
2022-10-26T03:16:29.087Z,100716.07
2022-10-26T03:18:57.845Z,100710.79
2022-10-26T03:21:26.960Z,100713.45
2022-10-26T03:23:55.684Z,100716.33
2022-10-26T03:26:24.495Z,100715.70
2022-10-26T03:28:53.240Z,100713.85
2022-10-26T03:31:21.982Z,100718.77
2022-10-26T03:33:50.735Z,100720.72
2022-10-26T03:36:19.435Z,100722.01
2022-10-26T03:38:48.080Z,100726.60
2022-10-26T03:41:16.831Z,100726.90
2022-10-26T03:43:45.754Z,100727.02
2022-10-26T03:46:15.059Z,100729.21
2022-10-26T03:48:43.954Z,100726.88
2022-10-26T03:51:12.736Z,100728.05
2022-10-26T03:53:41.419Z,100729.13
2022-10-26T03:56:10.136Z,100730.60
2022-10-26T03:58:38.927Z,100733.56
2022-10-26T04:01:07.621Z,100737.07
2022-10-26T04:03:36.348Z,100738.23
2022-10-26T04:06:05.764Z,100744.09
2022-10-26T04:08:34.523Z,100743.16
2022-10-26T04:11:04.632Z,100741.20
2022-10-26T04:13:33.865Z,100739.88
2022-10-26T04:16:02.601Z,100735.27
2022-10-26T04:18:31.347Z,100739.63
2022-10-26T04:21:03.376Z,100738.54
2022-10-26T04:23:31.982Z,100742.91
2022-10-26T04:26:00.764Z,100743.58
2022-10-26T04:28:29.597Z,100745.63
2022-10-26T04:30:58.315Z,100750.34
2022-10-26T04:33:27.149Z,100748.80
2022-10-26T04:36:01.367Z,100752.23
2022-10-26T04:38:30.066Z,100752.46
2022-10-26T04:40:58.771Z,100748.63
2022-10-26T04:43:27.467Z,100751.36
2022-10-26T04:45:57.974Z,100750.24
2022-10-26T04:48:26.704Z,100751.54
2022-10-26T04:50:59.893Z,100748.52
2022-10-26T04:53:28.799Z,100750.77
2022-10-26T04:56:01.835Z,100754.78
2022-10-26T04:58:31.022Z,100757.36
2022-10-26T05:01:02.583Z,100760.09
2022-10-26T05:03:31.472Z,100760.13
2022-10-26T05:06:00.426Z,100759.66
2022-10-26T05:08:30.179Z,100759.90
2022-10-26T05:10:58.925Z,100760.53
2022-10-26T05:16:01.380Z,100762.61
2022-10-26T05:18:30.106Z,100764.86
2022-10-26T05:20:58.855Z,100763.64
2022-10-26T05:23:27.712Z,100762.98
2022-10-26T05:25:57.007Z,100764.67
2022-10-26T05:28:25.793Z,100762.15
2022-10-26T05:30:54.510Z,100763.61
2022-10-26T05:33:23.204Z,100768.37
2022-10-26T05:35:55.571Z,100769.49
2022-10-26T05:38:24.383Z,100774.34
2022-10-26T05:40:54.815Z,100777.81
2022-10-26T05:43:24.451Z,100774.81
2022-10-26T05:45:54.560Z,100774.34
2022-10-26T05:48:23.463Z,100779.19
2022-10-26T05:50:53.760Z,100779.71
2022-10-26T05:53:22.724Z,100783.65
2022-10-26T05:55:51.931Z,100782.36
2022-10-26T05:58:21.052Z,100782.73
2022-10-26T06:01:35.469Z,100785.70
2022-10-26T06:04:30.560Z,100785.89
2022-10-26T06:06:59.677Z,100791.02
2022-10-26T06:09:28.949Z,100799.01
2022-10-26T06:11:58.227Z,100797.73
2022-10-26T06:14:27.600Z,100798.83
2022-10-26T06:22:35.326Z,100803.50
2022-10-26T06:25:36.636Z,100805.38
2022-10-26T06:28:36.126Z,100811.20
2022-10-26T06:31:05.226Z,100810.94
2022-10-26T06:33:34.553Z,100806.70
2022-10-26T06:36:23.318Z,100807.44
2022-10-26T06:39:04.525Z,100808.54
2022-10-26T06:41:36.286Z,100812.58
2022-10-26T06:44:06.372Z,100808.67
2022-10-26T06:46:56.926Z,100810.21
2022-10-26T06:50:02.074Z,100815.33
2022-10-26T06:52:44.460Z,100819.70
2022-10-26T06:55:17.632Z,100819.45
2022-10-26T06:57:46.695Z,100817.39
2022-10-26T07:00:26.038Z,100820.34
2022-10-26T07:02:55.023Z,100821.27
2022-10-26T07:05:24.121Z,100826.18
2022-10-26T07:07:53.259Z,100829.36
2022-10-26T07:10:22.496Z,100831.13
2022-10-26T07:12:51.383Z,100837.20
2022-10-26T07:15:20.252Z,100843.70
2022-10-26T07:17:50.266Z,100847.83
2022-10-26T07:20:21.536Z,100850.59
2022-10-26T07:22:57.232Z,100848.77
2022-10-26T07:25:27.004Z,100849.81
2022-10-26T07:28:00.276Z,100852.73
2022-10-26T07:30:30.509Z,100851.97
2022-10-26T07:33:20.317Z,100852.95
2022-10-26T07:35:49.203Z,100852.64
2022-10-26T07:38:18.096Z,100854.58
2022-10-26T07:40:46.920Z,100853.03
2022-10-26T07:43:16.423Z,100856.66
2022-10-26T07:45:45.358Z,100854.16
2022-10-26T07:48:14.341Z,100856.66
2022-10-26T07:50:43.159Z,100859.02
2022-10-26T07:53:12.011Z,100860.04
2022-10-26T07:55:40.754Z,100863.10
2022-10-26T07:58:09.471Z,100862.40
2022-10-26T08:00:38.208Z,100860.96
2022-10-26T08:03:06.990Z,100862.64
2022-10-26T08:05:36.046Z,100858.98
2022-10-26T08:08:05.709Z,100859.68
2022-10-26T08:10:34.732Z,100866.73
2022-10-26T08:13:03.556Z,100865.72
2022-10-26T08:15:32.367Z,100866.27
2022-10-26T08:18:01.178Z,100869.62
2022-10-26T08:20:30.042Z,100870.06
2022-10-26T08:23:01.447Z,100868.49
2022-10-26T08:25:30.438Z,100867.98
2022-10-26T08:28:03.594Z,100867.98
2022-10-26T08:30:33.069Z,100866.99
2022-10-26T08:33:05.453Z,100868.63
2022-10-26T08:35:34.891Z,100863.37
2022-10-26T08:38:03.632Z,100866.49
2022-10-26T08:40:37.649Z,100868.01
2022-10-26T08:43:31.825Z,100872.11
2022-10-26T08:46:33.138Z,100875.71
2022-10-26T08:49:28.268Z,100876.42
2022-10-26T08:52:02.465Z,100877.55
2022-10-26T08:54:40.869Z,100878.35
2022-10-26T08:57:21.369Z,100876.90
2022-10-26T08:59:59.456Z,100884.18
2022-10-26T09:02:28.391Z,100883.77
2022-10-26T09:04:59.614Z,100883.80
2022-10-26T09:07:57.347Z,100886.31
2022-10-26T09:10:50.990Z,100881.34
2022-10-26T09:13:42.266Z,100880.58
2022-10-26T09:16:46.152Z,100878.89
2022-10-26T09:19:58.589Z,100878.21
2022-10-26T09:22:45.819Z,100882.50
2022-10-26T09:25:23.744Z,100888.57
2022-10-26T09:28:00.755Z,100889.59
2022-10-26T09:30:30.502Z,100888.73
2022-10-26T09:33:22.570Z,100885.14
2022-10-26T09:36:01.545Z,100882.99
2022-10-26T09:38:41.252Z,100882.32
2022-10-26T09:41:41.137Z,100882.52
2022-10-26T09:44:31.612Z,100878.98
2022-10-26T09:47:21.614Z,100878.27
2022-10-26T09:50:06.731Z,100883.41
2022-10-26T09:52:35.494Z,100886.64
2022-10-26T09:55:04.566Z,100890.65
2022-10-26T09:57:33.686Z,100894.80
2022-10-26T10:00:02.629Z,100890.20
2022-10-26T10:02:45.304Z,100894.63
2022-10-26T10:05:51.789Z,100896.16
2022-10-26T10:08:27.538Z,100894.20
2022-10-26T10:11:11.225Z,100894.33
2022-10-26T10:13:46.325Z,100897.07
2022-10-26T10:16:24.054Z,100900.19
2022-10-26T10:18:59.291Z,100894.08
2022-10-26T10:21:38.526Z,100891.09
2022-10-26T10:24:53.400Z,100886.75
2022-10-26T10:27:23.597Z,100889.02
2022-10-26T10:30:04.186Z,100889.94
2022-10-26T10:32:37.192Z,100887.75
2022-10-26T10:35:25.769Z,100883.80
2022-10-26T10:37:54.529Z,100888.36
2022-10-26T10:40:27.564Z,100887.80
2022-10-26T10:43:14.406Z,100888.95
2022-10-26T10:45:49.260Z,100889.58
2022-10-26T10:48:25.258Z,100886.77
2022-10-26T10:51:12.632Z,100887.08
2022-10-26T10:53:51.972Z,100886.20
2022-10-26T10:56:42.323Z,100886.42
2022-10-26T11:00:04.115Z,100882.34
2022-10-26T11:03:08.847Z,100880.40
2022-10-26T11:05:51.458Z,100877.56
2022-10-26T11:08:38.078Z,100876.74
2022-10-26T11:11:28.872Z,100879.42
2022-10-26T11:14:20.267Z,100880.88
2022-10-26T11:17:12.732Z,100880.91
2022-10-26T11:19:54.826Z,100880.81
2022-10-26T11:22:42.038Z,100883.85
2022-10-26T11:25:22.789Z,100884.33
2022-10-26T11:28:11.145Z,100884.80
2022-10-26T11:30:49.619Z,100881.91
2022-10-26T11:33:36.740Z,100879.50
2022-10-26T11:36:12.423Z,100879.80
2022-10-26T11:38:57.174Z,100885.39
2022-10-26T11:41:37.378Z,100886.92
2022-10-26T11:44:17.800Z,100888.41
2022-10-26T11:47:01.414Z,100894.39
2022-10-26T11:49:42.330Z,100891.13
2022-10-26T11:52:29.888Z,100888.38
2022-10-26T11:55:04.828Z,100884.54
2022-10-26T11:57:36.860Z,100887.79
2022-10-26T12:00:20.770Z,100889.75
2022-10-26T12:03:12.158Z,100890.52
2022-10-26T12:05:40.969Z,100891.16
2022-10-26T12:08:24.339Z,100890.17
2022-10-26T12:11:13.869Z,100890.55
2022-10-26T12:14:07.388Z,100892.02
2022-10-26T12:16:51.516Z,100890.52
2022-10-26T12:19:54.552Z,100892.02
2022-10-26T12:22:32.413Z,100893.08
2022-10-26T12:25:15.463Z,100892.05
2022-10-26T12:27:44.416Z,100890.11
2022-10-26T12:30:19.050Z,100890.56
2022-10-26T12:32:48.953Z,100894.38
2022-10-26T12:35:40.728Z,100891.64
2022-10-26T12:38:21.671Z,100889.69
2022-10-26T12:41:21.023Z,100888.55
2022-10-26T12:43:50.033Z,100888.85
2022-10-26T12:46:18.964Z,100891.63
2022-10-26T12:48:49.955Z,100886.65
2022-10-26T12:51:21.852Z,100888.61
2022-10-26T12:54:02.975Z,100889.53
2022-10-26T12:56:56.431Z,100888.63
2022-10-26T12:59:50.305Z,100884.73
2022-10-26T13:02:59.763Z,100883.06
2022-10-26T13:06:24.346Z,100880.80
2022-10-26T13:08:58.833Z,100876.30
2022-10-26T13:11:42.884Z,100875.85
2022-10-26T13:14:31.529Z,100879.11
2022-10-26T13:17:02.385Z,100879.80
2022-10-26T13:19:38.180Z,100876.48
2022-10-26T13:22:20.243Z,100875.54
2022-10-26T13:24:55.508Z,100874.16
2022-10-26T13:27:41.927Z,100872.32
2022-10-26T13:30:22.825Z,100874.02
2022-10-26T13:32:56.570Z,100871.81
2022-10-26T13:35:26.818Z,100875.68
2022-10-26T13:37:57.490Z,100876.56
2022-10-26T13:40:30.380Z,100873.11
2022-10-26T13:43:04.979Z,100872.75
2022-10-26T13:45:58.782Z,100869.92
2022-10-26T13:48:39.435Z,100868.11
2022-10-26T13:51:23.924Z,100868.80
2022-10-26T13:54:00.511Z,100866.79
2022-10-26T13:56:48.939Z,100866.35
2022-10-26T14:02:15.928Z,100866.48
2022-10-26T14:04:53.020Z,100868.27
2022-10-26T14:07:26.923Z,100868.19
2022-10-26T14:09:58.203Z,100868.80
2022-10-26T14:12:31.122Z,100868.80
2022-10-26T14:15:08.656Z,100872.23
2022-10-26T14:17:37.409Z,100873.93
2022-10-26T14:20:06.841Z,100873.33
2022-10-26T14:22:35.651Z,100871.19
2022-10-26T14:25:04.700Z,100873.54
2022-10-26T14:27:39.502Z,100874.48
2022-10-26T14:30:24.445Z,100875.74
2022-10-26T14:32:53.957Z,100877.79
2022-10-26T14:35:28.288Z,100878.71
2022-10-26T14:38:22.539Z,100880.69
2022-10-26T14:40:52.464Z,100882.35
2022-10-26T14:43:24.645Z,100883.71
2022-10-26T14:45:54.608Z,100883.23
2022-10-26T14:48:32.501Z,100882.41
2022-10-26T14:51:17.525Z,100883.05
2022-10-26T14:53:53.050Z,100881.32
2022-10-26T14:56:36.189Z,100882.17
2022-10-26T14:59:32.194Z,100888.84
2022-10-26T15:02:21.296Z,100887.91
2022-10-26T15:05:20.165Z,100889.02
2022-10-26T15:07:49.667Z,100888.75
2022-10-26T15:10:37.253Z,100888.48
2022-10-26T15:13:34.595Z,100891.38
2022-10-26T15:16:15.828Z,100893.40
2022-10-26T15:18:52.332Z,100896.41
2022-10-26T15:21:43.619Z,100896.52
2022-10-26T15:24:32.023Z,100900.27
2022-10-26T15:27:09.431Z,100898.91
2022-10-26T15:29:52.072Z,100896.15
2022-10-26T15:32:32.717Z,100896.09
2022-10-26T15:35:12.100Z,100898.00
2022-10-26T15:37:43.534Z,100900.88
2022-10-26T15:40:14.810Z,100897.25
2022-10-26T15:42:53.687Z,100901.56
2022-10-26T15:45:54.743Z,100902.02
2022-10-26T15:48:38.007Z,100905.28
2022-10-26T15:51:38.309Z,100907.05
2022-10-26T15:57:52.738Z,100910.48
2022-10-26T16:00:39.815Z,100918.84
2022-10-26T16:06:34.508Z,100917.85
2022-10-26T16:10:19.646Z,100914.52
2022-10-26T16:14:33.339Z,100910.73
2022-10-26T16:20:54.364Z,100919.21
2022-10-26T16:47:07.054Z,100940.61
2022-10-26T16:57:59.648Z,100956.55
2022-10-26T17:26:24.045Z,100991.86
2022-10-26T17:29:30.724Z,100993.92
2022-10-26T18:22:00.660Z,101012.33
2022-10-26T18:25:27.772Z,101014.40
2022-10-26T19:09:47.763Z,101047.95
2022-10-26T19:13:31.871Z,101053.55
2022-10-26T19:16:47.357Z,101056.46
2022-10-26T19:23:23.388Z,101060.54
2022-10-26T19:26:19.611Z,101061.92
2022-10-26T19:29:57.016Z,101064.59
2022-10-26T19:32:44.209Z,101067.63
2022-10-26T19:35:17.280Z,101067.67
2022-10-26T19:37:52.582Z,101069.44
2022-10-26T19:40:28.058Z,101075.25
2022-10-26T19:43:12.309Z,101077.55
2022-10-26T19:46:09.513Z,101079.91
2022-10-26T19:49:33.592Z,101080.51
2022-10-26T19:52:14.267Z,101084.66
2022-10-26T19:54:55.668Z,101097.09
2022-10-26T19:57:46.526Z,101102.48
2022-10-26T20:04:05.773Z,101109.55
2022-10-26T20:10:35.067Z,101113.76
2022-10-26T20:21:41.080Z,101110.30
2022-10-26T20:28:39.432Z,101111.20
2022-10-26T20:32:26.691Z,101110.92
2022-10-26T20:40:04.540Z,101114.22
2022-10-26T21:51:46.250Z,101124.08
